Time;durP1;ratioP1;P1;durP2;ratioP2;P2;SDS_P1;SDS_P2;PMS_P1;PMS_P2;Temp;Humidity;BMP_temperature;BMP_pressure;BME280_temperature;BME280_humidity;BME280_pressure;Samples;Min_cycle;Max_cycle;Signal;HPM_P1;HPM_P2
2020/12/13 00:02:22;;;;;;;1.85;1.20;;;4.20;70.40;;;;;;5078605;28;20024;-70
2020/12/13 00:04:47;;;;;;;1.88;1.10;;;4.30;70.30;;;;;;5080011;28;20069;-70
2020/12/13 00:07:13;;;;;;;2.00;1.50;;;4.30;69.80;;;;;;5062235;28;20029;-69
2020/12/13 00:09:39;;;;;;;1.52;1.15;;;4.40;69.30;;;;;;5079972;28;20052;-70
2020/12/13 00:12:05;;;;;;;2.10;1.30;;;4.50;69.10;;;;;;5079885;28;20028;-70
2020/12/13 00:14:31;;;;;;;1.85;1.40;;;4.60;68.90;;;;;;5079808;28;20104;-71
2020/12/13 00:16:57;;;;;;;2.60;1.48;;;4.60;68.70;;;;;;5079824;28;20103;-69
2020/12/13 00:19:23;;;;;;;1.65;1.00;;;4.50;69.20;;;;;;5061845;28;20331;-69
2020/12/13 00:21:51;;;;;;;2.40;1.63;;;4.50;68.90;;;;;;5079755;28;20020;-69
2020/12/13 00:24:18;;;;;;;1.70;1.13;;;4.60;69.00;;;;;;5079821;28;20033;-71
2020/12/13 00:26:46;;;;;;;2.15;1.63;;;4.60;68.70;;;;;;5079497;28;20053;-70
2020/12/13 00:29:16;;;;;;;1.60;1.00;;;4.60;68.80;;;;;;5079773;28;20032;-70
2020/12/13 00:31:42;;;;;;;1.58;1.10;;;4.60;68.40;;;;;;5061787;28;20044;-70
2020/12/13 00:34:08;;;;;;;1.58;1.30;;;4.60;68.60;;;;;;5079449;28;20056;-70
2020/12/13 00:36:34;;;;;;;1.73;1.50;;;4.60;68.80;;;;;;5079487;28;20313;-72
2020/12/13 00:39:00;;;;;;;1.92;1.33;;;4.60;69.20;;;;;;5079504;28;20319;-70
2020/12/13 00:41:25;;;;;;;2.42;1.50;;;4.50;69.00;;;;;;5079395;28;20032;-70
2020/12/13 00:43:51;;;;;;;1.70;1.20;;;4.60;68.80;;;;;;5079326;28;20039;-70
2020/12/13 00:46:17;;;;;;;2.22;1.55;;;4.50;69.50;;;;;;5061575;28;20082;-69
2020/12/13 00:48:45;;;;;;;2.45;1.75;;;4.60;69.20;;;;;;5079248;28;20033;-70
2020/12/13 00:51:11;;;;;;;1.40;1.00;;;4.60;69.60;;;;;;5061531;28;20021;-70
2020/12/13 00:53:36;;;;;;;1.77;1.10;;;4.50;69.10;;;;;;5079272;28;20059;-70
2020/12/13 00:56:02;;;;;;;1.73;1.20;;;4.60;68.80;;;;;;5079041;28;20313;-70
2020/12/13 00:58:27;;;;;;;1.55;1.05;;;4.60;69.00;;;;;;5061324;28;20032;-70
2020/12/13 01:00:55;;;;;;;1.63;1.15;;;4.60;69.10;;;;;;5061340;28;20028;-70
2020/12/13 01:03:21;;;;;;;1.30;0.77;;;4.60;68.60;;;;;;5061217;28;20028;-70
2020/12/13 01:05:47;;;;;;;1.23;0.82;;;4.60;68.40;;;;;;5078904;28;20463;-70
2020/12/13 01:08:12;;;;;;;1.33;0.98;;;4.60;68.80;;;;;;5079399;28;20056;-70
2020/12/13 01:10:38;;;;;;;1.58;0.93;;;4.50;68.60;;;;;;5078870;28;20035;-70
2020/12/13 01:13:03;;;;;;;1.70;1.05;;;4.50;69.10;;;;;;5078576;28;20107;-70
2020/12/13 01:15:29;;;;;;;1.60;0.90;;;4.50;68.60;;;;;;5060986;28;20312;-70
2020/12/13 01:17:55;;;;;;;1.77;1.00;;;4.50;68.60;;;;;;5078678;28;20021;-71
2020/12/13 01:20:21;;;;;;;1.55;0.93;;;4.50;68.40;;;;;;5078993;28;20024;-72
2020/12/13 01:22:46;;;;;;;1.08;0.70;;;4.50;68.30;;;;;;5078599;28;20033;-72
2020/12/13 01:25:12;;;;;;;1.10;0.70;;;4.50;68.20;;;;;;5078263;28;20110;-72
2020/12/13 01:27:38;;;;;;;1.38;0.93;;;4.60;67.70;;;;;;5078554;28;20036;-72
2020/12/13 01:30:08;;;;;;;1.20;1.00;;;4.70;68.10;;;;;;5078462;28;20107;-70
2020/12/13 01:32:40;;;;;;;1.70;0.90;;;4.70;67.60;;;;;;5078517;28;20043;-71
2020/12/13 01:35:07;;;;;;;1.52;1.15;;;4.70;67.40;;;;;;5078447;28;20017;-69
2020/12/13 01:37:35;;;;;;;1.80;1.05;;;4.70;67.60;;;;;;5078305;28;20293;-70
2020/12/13 01:40:05;;;;;;;1.60;1.08;;;4.80;67.50;;;;;;5078326;28;20400;-71
2020/12/13 01:42:43;;;;;;;1.75;1.25;;;4.80;67.60;;;;;;5078270;28;20067;-71
2020/12/13 01:45:12;;;;;;;3.95;1.45;;;4.90;67.00;;;;;;5078208;28;20024;-70
2020/12/13 01:47:38;;;;;;;1.42;1.08;;;4.90;66.70;;;;;;5078087;28;20078;-69
2020/12/13 01:50:10;;;;;;;1.40;1.10;;;4.90;67.00;;;;;;5078390;28;20078;-70
2020/12/13 01:52:47;;;;;;;1.92;0.90;;;4.90;66.60;;;;;;5078067;28;20074;-69
2020/12/13 01:55:17;;;;;;;1.80;1.00;;;5.00;66.70;;;;;;5078423;28;20024;-70
2020/12/13 01:57:51;;;;;;;1.30;0.93;;;4.90;67.00;;;;;;5078029;28;20032;-69
2020/12/13 02:00:17;;;;;;;2.22;1.30;;;4.90;66.80;;;;;;5077938;28;20027;-70
2020/12/13 02:02:58;;;;;;;1.73;1.27;;;5.00;66.40;;;;;;5077790;28;20049;-71
2020/12/13 02:05:27;;;;;;;3.60;1.00;;;5.00;66.30;;;;;;5077823;28;20090;-72
2020/12/13 02:07:55;;;;;;;1.33;0.80;;;4.90;66.80;;;;;;5077689;28;20028;-70
2020/12/13 02:10:21;;;;;;;2.03;1.10;;;4.90;66.00;;;;;;5077637;28;20327;-71
2020/12/13 02:12:47;;;;;;;1.70;1.10;;;5.00;66.20;;;;;;5077470;28;20032;-71
2020/12/13 02:15:12;;;;;;;3.38;1.30;;;5.00;66.70;;;;;;5077581;28;20016;-69
2020/12/13 02:17:38;;;;;;;2.88;1.33;;;5.00;66.40;;;;;;5077639;28;20032;-70
2020/12/13 02:20:12;;;;;;;1.35;0.82;;;5.00;65.90;;;;;;5059711;28;20162;-70
2020/12/13 02:22:41;;;;;;;2.33;1.00;;;5.00;66.40;;;;;;5077642;28;20329;-70
2020/12/13 02:25:08;;;;;;;1.27;0.85;;;4.90;66.10;;;;;;5055644;28;20051;-70
2020/12/13 02:27:36;;;;;;;1.45;0.88;;;4.90;66.50;;;;;;5057367;28;20037;-71
2020/12/13 02:30:03;;;;;;;1.58;1.05;;;4.70;67.60;;;;;;5057393;28;20021;-70
2020/12/13 02:32:29;;;;;;;1.30;0.98;;;4.60;67.10;;;;;;5057321;28;20044;-70
2020/12/13 02:34:54;;;;;;;1.88;1.00;;;4.50;67.80;;;;;;5057210;28;20404;-70
2020/12/13 02:37:21;;;;;;;1.85;1.20;;;4.50;68.10;;;;;;5057199;28;20100;-70
2020/12/13 02:39:47;;;;;;;1.55;1.05;;;4.50;68.00;;;;;;5057196;28;20086;-70
2020/12/13 02:42:12;;;;;;;0.95;0.80;;;4.50;67.60;;;;;;5057117;28;20028;-70
2020/12/13 02:44:38;;;;;;;1.27;0.73;;;4.50;67.50;;;;;;5057057;28;20348;-70
2020/12/13 02:47:04;;;;;;;1.30;0.88;;;4.50;67.30;;;;;;5057067;28;20389;-70
2020/12/13 02:49:32;;;;;;;1.20;0.70;;;4.60;67.10;;;;;;5057235;28;20032;-70
2020/12/13 02:51:58;;;;;;;1.17;0.82;;;4.70;66.20;;;;;;5057023;28;20059;-70
2020/12/13 02:54:24;;;;;;;1.35;0.63;;;4.80;66.10;;;;;;5057183;28;20344;-69
2020/12/13 02:56:49;;;;;;;1.35;0.80;;;4.90;65.90;;;;;;5056894;28;20063;-70
2020/12/13 02:59:17;;;;;;;1.13;0.70;;;4.90;65.40;;;;;;5057061;28;20025;-70
2020/12/13 03:01:45;;;;;;;0.82;0.60;;;4.90;65.60;;;;;;5055778;28;20332;-70
2020/12/13 03:04:11;;;;;;;1.33;0.88;;;4.90;65.20;;;;;;5056994;28;20113;-70
2020/12/13 03:06:39;;;;;;;1.20;0.70;;;4.90;66.00;;;;;;5056776;28;20106;-70
2020/12/13 03:09:07;;;;;;;2.30;1.38;;;4.80;66.40;;;;;;5056737;28;20116;-72
2020/12/13 03:11:33;;;;;;;1.45;1.00;;;4.60;68.10;;;;;;5056816;28;20032;-72
2020/12/13 03:14:01;;;;;;;1.35;0.82;;;4.40;67.60;;;;;;5056613;28;20318;-72
2020/12/13 03:16:27;;;;;;;1.00;0.70;;;4.40;68.10;;;;;;5056684;28;20025;-72
2020/12/13 03:18:55;;;;;;;1.92;0.70;;;4.40;67.80;;;;;;5056666;28;20151;-70
2020/12/13 03:21:21;;;;;;;0.73;0.52;;;4.30;68.50;;;;;;5056630;28;20457;-70
2020/12/13 03:23:46;;;;;;;1.05;0.70;;;4.30;67.40;;;;;;5056633;28;20147;-70
2020/12/13 03:26:14;;;;;;;1.10;0.70;;;4.30;68.20;;;;;;5069649;28;20459;-70
2020/12/13 03:28:40;;;;;;;0.88;0.70;;;4.20;69.20;;;;;;5076561;28;20025;-70
2020/12/13 03:31:08;;;;;;;1.38;0.85;;;4.10;68.90;;;;;;5076540;28;20111;-70
2020/12/13 03:33:34;;;;;;;1.13;0.70;;;4.00;69.70;;;;;;5076482;28;20031;-70
2020/12/13 03:35:59;;;;;;;1.67;0.73;;;3.90;70.00;;;;;;5076689;28;20100;-70
2020/12/13 03:38:25;;;;;;;2.38;1.23;;;3.90;70.00;;;;;;5080728;28;20063;-70
2020/12/13 03:40:51;;;;;;;1.23;0.73;;;3.90;71.00;;;;;;5062828;28;20496;-70
2020/12/13 03:43:16;;;;;;;1.50;0.80;;;3.90;71.50;;;;;;5080510;28;20031;-70
2020/12/13 03:45:42;;;;;;;2.53;0.70;;;3.90;70.30;;;;;;5062630;28;20052;-70
2020/12/13 03:48:08;;;;;;;1.15;0.73;;;3.90;69.00;;;;;;5080380;28;20055;-71
2020/12/13 03:50:40;;;;;;;1.48;0.90;;;4.00;69.20;;;;;;5080314;28;20382;-72
2020/12/13 03:53:13;;;;;;;1.50;1.20;;;4.10;69.40;;;;;;5080549;28;20059;-69
2020/12/13 03:55:40;;;;;;;1.33;0.75;;;4.20;68.50;;;;;;5080317;28;20321;-69
2020/12/13 03:58:06;;;;;;;1.40;0.98;;;4.40;68.40;;;;;;5080205;28;20027;-70
2020/12/13 04:00:33;;;;;;;1.40;0.90;;;4.50;68.00;;;;;;5080201;28;20020;-69
2020/12/13 04:02:59;;;;;;;2.33;0.98;;;4.50;67.30;;;;;;5080134;28;20020;-69
2020/12/13 04:05:26;;;;;;;1.17;0.70;;;4.60;67.30;;;;;;5080193;28;20499;-69
2020/12/13 04:07:57;;;;;;;2.10;1.13;;;4.70;66.20;;;;;;5080007;28;20016;-69
2020/12/13 04:10:25;;;;;;;1.95;1.00;;;4.80;66.70;;;;;;5079680;28;20526;-69
2020/12/13 04:12:51;;;;;;;2.65;0.68;;;4.80;66.60;;;;;;5079972;28;20017;-69
2020/12/13 04:15:19;;;;;;;1.17;0.73;;;4.80;66.50;;;;;;5079808;28;20025;-69
2020/12/13 04:17:45;;;;;;;1.45;0.70;;;4.90;66.20;;;;;;5079811;28;20059;-70
2020/12/13 04:20:11;;;;;;;1.77;0.93;;;4.90;66.00;;;;;;5079842;28;20480;-70
2020/12/13 04:22:37;;;;;;;0.95;0.77;;;5.00;65.80;;;;;;5079769;28;20021;-69
2020/12/13 04:25:04;;;;;;;1.13;0.70;;;5.00;65.30;;;;;;5079827;28;20485;-69
2020/12/13 04:27:30;;;;;;;1.58;0.90;;;5.00;65.00;;;;;;5079720;28;20051;-70
2020/12/13 04:29:55;;;;;;;1.15;0.80;;;5.10;65.10;;;;;;5079555;28;20412;-69
2020/12/13 04:32:24;;;;;;;1.15;0.80;;;5.10;65.20;;;;;;5079772;28;20020;-70
2020/12/13 04:34:51;;;;;;;1.63;0.93;;;5.10;65.20;;;;;;5079482;28;20400;-69
2020/12/13 04:37:17;;;;;;;1.30;0.80;;;5.10;64.80;;;;;;5079683;28;20024;-69
2020/12/13 04:39:43;;;;;;;1.05;0.60;;;5.10;65.40;;;;;;5079495;28;20447;-69
2020/12/13 04:42:09;;;;;;;0.82;0.40;;;5.00;65.60;;;;;;5079392;28;20024;-70
2020/12/13 04:44:36;;;;;;;1.08;0.70;;;5.10;65.00;;;;;;5079322;28;20499;-69
2020/12/13 04:47:04;;;;;;;0.77;0.57;;;5.20;64.70;;;;;;5078695;28;20029;-69
2020/12/13 04:49:31;;;;;;;3.13;0.80;;;5.30;64.90;;;;;;5079259;28;20070;-71
2020/12/13 04:51:59;;;;;;;1.17;0.95;;;5.20;65.40;;;;;;5079205;28;20025;-71
2020/12/13 04:54:27;;;;;;;0.93;0.70;;;5.10;65.30;;;;;;5079427;28;20070;-70
2020/12/13 04:56:55;;;;;;;1.30;0.70;;;5.10;65.60;;;;;;5079094;28;20033;-70
2020/12/13 04:59:21;;;;;;;1.27;0.80;;;5.10;66.10;;;;;;5079161;28;20070;-69
2020/12/13 05:01:48;;;;;;;1.58;0.50;;;5.00;65.50;;;;;;5079040;28;20366;-70
2020/12/13 05:04:14;;;;;;;1.23;0.50;;;5.10;64.60;;;;;;5079239;28;20029;-70
2020/12/13 05:06:41;;;;;;;0.60;0.43;;;5.20;64.20;;;;;;5078991;28;20035;-69
2020/12/13 05:09:09;;;;;;;0.55;0.43;;;5.20;64.60;;;;;;5078633;28;20089;-70
2020/12/13 05:11:35;;;;;;;0.75;0.65;;;5.20;64.10;;;;;;5061125;28;20058;-70
2020/12/13 05:14:03;;;;;;;0.70;0.55;;;5.30;64.20;;;;;;5078744;28;20388;-70
2020/12/13 05:16:28;;;;;;;0.95;0.60;;;5.30;63.80;;;;;;5078784;28;20017;-70
2020/12/13 05:18:54;;;;;;;0.93;0.63;;;5.30;64.40;;;;;;5078790;28;20519;-70
2020/12/13 05:21:21;;;;;;;0.75;0.45;;;5.10;64.80;;;;;;5078775;28;20036;-70
2020/12/13 05:23:47;;;;;;;0.77;0.50;;;5.00;64.60;;;;;;5078490;28;20020;-70
2020/12/13 05:26:18;;;;;;;1.15;0.70;;;4.90;65.50;;;;;;5060672;28;20062;-70
2020/12/13 05:28:54;;;;;;;0.82;0.50;;;4.80;65.70;;;;;;5078499;28;20332;-70
2020/12/13 05:31:23;;;;;;;1.92;0.80;;;4.70;65.80;;;;;;5078675;28;20044;-70
2020/12/13 05:33:53;;;;;;;1.20;0.63;;;4.80;65.70;;;;;;5078362;28;20028;-70
2020/12/13 05:36:19;;;;;;;1.05;0.70;;;4.80;65.60;;;;;;5078505;28;20020;-70
2020/12/13 05:38:45;;;;;;;0.60;0.40;;;4.80;65.30;;;;;;5060870;28;20081;-70
2020/12/13 05:41:15;;;;;;;0.73;0.52;;;4.80;65.20;;;;;;5078329;28;20020;-70
2020/12/13 05:51:46;;;;;;;0.70;0.55;;;5.00;64.50;;;;;;5078393;28;20078;-70
2020/12/13 05:54:24;;;;;;;0.52;0.40;;;5.00;64.70;;;;;;5078209;28;20035;-70
2020/12/13 05:56:55;;;;;;;1.00;0.70;;;5.00;64.20;;;;;;5078260;28;20032;-70
2020/12/13 05:59:25;;;;;;;0.90;0.60;;;4.90;64.90;;;;;;5059315;28;20372;-69
2020/12/13 06:01:55;;;;;;;1.50;0.63;;;4.90;64.90;;;;;;5077896;28;20410;-70
2020/12/13 06:04:27;;;;;;;1.00;0.65;;;4.90;65.90;;;;;;5077742;28;20034;-69
2020/12/13 06:06:58;;;;;;;0.88;0.60;;;4.90;65.60;;;;;;5077786;28;20381;-70
2020/12/13 06:09:41;;;;;;;0.90;0.60;;;4.90;65.00;;;;;;5059999;28;20055;-70
2020/12/13 06:12:09;;;;;;;0.88;0.60;;;4.90;65.30;;;;;;5059934;28;20112;-69
2020/12/13 06:14:37;;;;;;;2.40;0.80;;;4.90;65.50;;;;;;5077571;28;20023;-70
2020/12/13 06:17:03;;;;;;;0.82;0.50;;;4.90;66.00;;;;;;5059863;28;20077;-69
2020/12/13 06:19:31;;;;;;;1.05;0.70;;;4.90;65.30;;;;;;5077607;28;20028;-69
2020/12/13 06:21:59;;;;;;;1.55;0.70;;;4.90;65.80;;;;;;5077509;28;20020;-69
2020/12/13 06:24:25;;;;;;;1.85;0.40;;;4.90;65.00;;;;;;5077721;28;20033;-70
2020/12/13 06:26:53;;;;;;;0.90;0.40;;;4.90;65.10;;;;;;5077293;28;20052;-69
2020/12/13 06:29:23;;;;;;;1.45;0.70;;;5.00;64.80;;;;;;5077512;28;20028;-69
2020/12/13 06:31:50;;;;;;;1.08;0.70;;;5.00;65.30;;;;;;5060378;28;20024;-70
2020/12/13 06:34:16;;;;;;;1.30;1.05;;;4.90;64.90;;;;;;5077235;28;20028;-69
2020/12/13 06:36:42;;;;;;;1.50;0.80;;;4.90;65.60;;;;;;5077212;28;20062;-71
2020/12/13 06:39:16;;;;;;;1.27;0.73;;;4.90;65.20;;;;;;5077272;28;20153;-70
2020/12/13 06:41:48;;;;;;;1.25;0.63;;;4.80;65.90;;;;;;5077143;28;20020;-69
2020/12/13 06:44:22;;;;;;;1.00;0.60;;;4.80;65.70;;;;;;5077095;28;20032;-71
2020/12/13 06:46:48;;;;;;;1.10;0.50;;;4.80;65.50;;;;;;5077340;28;20033;-70
2020/12/13 06:49:16;;;;;;;0.80;0.50;;;4.90;65.10;;;;;;5077282;28;20082;-71
2020/12/13 06:51:43;;;;;;;1.23;0.50;;;4.90;64.80;;;;;;5076995;28;20404;-69
2020/12/13 06:54:13;;;;;;;1.10;0.57;;;5.00;64.40;;;;;;5076835;28;20064;-70
2020/12/13 06:56:40;;;;;;;0.82;0.50;;;5.10;64.90;;;;;;5077006;28;20028;-69
2020/12/13 06:59:07;;;;;;;0.77;0.50;;;5.10;64.90;;;;;;5077162;28;20025;-69
2020/12/13 07:01:41;;;;;;;1.17;0.70;;;5.10;65.00;;;;;;5077441;28;20321;-70
2020/12/13 07:04:27;;;;;;;0.90;0.60;;;5.20;64.60;;;;;;5077072;28;20036;-70
2020/12/13 07:06:59;;;;;;;0.90;0.57;;;5.30;64.00;;;;;;5077093;28;20331;-69
2020/12/13 07:09:26;;;;;;;1.02;0.60;;;5.40;64.20;;;;;;5076822;28;20029;-69
2020/12/13 07:11:55;;;;;;;1.20;0.60;;;5.40;64.90;;;;;;5076478;28;20016;-70
2020/12/13 07:14:24;;;;;;;0.75;0.40;;;5.40;64.10;;;;;;5076730;28;20379;-70
2020/12/13 07:19:35;;;;;;;1.13;0.70;;;5.50;64.00;;;;;;5077596;28;20470;-69
2020/12/13 07:22:05;;;;;;;1.00;0.70;;;5.50;64.10;;;;;;5076716;28;20051;-69
2020/12/13 07:24:31;;;;;;;0.70;0.43;;;5.60;64.30;;;;;;5076932;28;20043;-69
2020/12/13 07:26:58;;;;;;;0.70;0.50;;;5.60;63.90;;;;;;5076467;28;20127;-69
2020/12/13 07:29:25;;;;;;;0.90;0.45;;;5.70;64.30;;;;;;5059150;28;20051;-69
2020/12/13 07:31:52;;;;;;;0.95;0.60;;;5.70;63.30;;;;;;5076535;28;20424;-70
2020/12/13 07:34:18;;;;;;;0.50;0.40;;;5.80;63.50;;;;;;5076527;28;20024;-69
2020/12/13 07:36:43;;;;;;;0.50;0.40;;;5.80;63.60;;;;;;5076481;28;20028;-70
2020/12/13 07:39:14;;;;;;;0.75;0.50;;;5.80;63.60;;;;;;5076519;28;20040;-69
2020/12/13 07:41:41;;;;;;;1.05;0.50;;;5.90;63.70;;;;;;5076825;28;20025;-70
2020/12/13 07:44:09;;;;;;;0.50;0.40;;;5.90;62.50;;;;;;5076368;28;20041;-69
2020/12/13 07:46:35;;;;;;;1.00;0.40;;;6.00;62.80;;;;;;5076428;28;20028;-69
2020/12/13 07:49:17;;;;;;;0.90;0.50;;;6.00;62.50;;;;;;5076338;28;20032;-70
2020/12/13 07:51:45;;;;;;;0.70;0.47;;;6.00;62.70;;;;;;5076330;28;20371;-69
2020/12/13 07:54:19;;;;;;;0.60;0.40;;;6.10;62.90;;;;;;5076534;28;20021;-70
2020/12/13 07:56:47;;;;;;;0.52;0.30;;;6.20;62.40;;;;;;5076308;28;20420;-70
2020/12/13 07:59:24;;;;;;;0.65;0.38;;;6.30;61.10;;;;;;5076359;28;20326;-70
2020/12/13 08:01:55;;;;;;;0.82;0.50;;;6.40;62.10;;;;;;5076220;28;20425;-70
2020/12/13 08:04:40;;;;;;;0.57;0.40;;;6.50;62.00;;;;;;5076520;28;20301;-70
2020/12/13 08:07:10;;;;;;;0.50;0.32;;;6.50;61.40;;;;;;5076522;28;20096;-70
2020/12/13 08:09:38;;;;;;;0.77;0.40;;;6.60;61.60;;;;;;5076252;28;20052;-70
2020/12/13 08:12:05;;;;;;;1.27;0.45;;;6.70;61.60;;;;;;5076184;28;20095;-70
2020/12/13 08:14:31;;;;;;;0.30;0.30;;;6.70;61.90;;;;;;5076294;28;20067;-70
2020/12/13 08:16:57;;;;;;;0.82;0.52;;;6.70;61.20;;;;;;5076170;28;20028;-70
2020/12/13 08:19:42;;;;;;;0.40;0.30;;;6.70;61.30;;;;;;5058479;28;20059;-69
2020/12/13 08:22:21;;;;;;;1.95;0.43;;;6.70;61.20;;;;;;5058592;28;20033;-69
2020/12/13 08:24:52;;;;;;;0.45;0.35;;;6.70;61.80;;;;;;5079497;28;20378;-69
2020/12/13 08:27:19;;;;;;;0.80;0.50;;;6.90;60.50;;;;;;5079895;28;20087;-70
2020/12/13 08:29:45;;;;;;;0.95;0.50;;;7.00;61.00;;;;;;5079773;28;20031;-70
2020/12/13 08:32:13;;;;;;;1.50;0.52;;;7.00;60.40;;;;;;5079631;28;20074;-70
2020/12/13 08:34:38;;;;;;;0.90;0.50;;;7.00;61.10;;;;;;5079555;28;20427;-69
2020/12/13 08:37:04;;;;;;;1.15;0.68;;;6.90;62.30;;;;;;5079777;28;20020;-69
2020/12/13 08:39:32;;;;;;;1.05;0.70;;;6.90;62.30;;;;;;5079631;28;20021;-71
2020/12/13 08:41:59;;;;;;;1.10;0.50;;;6.80;61.50;;;;;;5061722;28;20366;-69
2020/12/13 08:44:36;;;;;;;0.85;0.60;;;6.80;61.80;;;;;;5079237;28;20439;-69
2020/12/13 08:47:05;;;;;;;2.45;0.47;;;6.90;61.20;;;;;;5079621;28;20077;-69
2020/12/13 08:49:31;;;;;;;0.57;0.40;;;7.00;61.30;;;;;;5079625;28;20417;-70
2020/12/13 08:52:25;;;;;;;0.80;0.50;;;7.10;61.10;;;;;;5079258;28;20020;-70
2020/12/13 08:54:52;;;;;;;0.60;0.35;;;7.30;61.00;;;;;;5079623;28;20052;-70
2020/12/13 08:57:28;;;;;;;0.90;0.55;;;7.40;61.30;;;;;;5079135;28;20029;-70
2020/12/13 09:00:07;;;;;;;0.55;0.32;;;7.40;60.60;;;;;;5079598;28;20367;-70
2020/12/13 09:02:33;;;;;;;1.23;0.40;;;7.50;62.30;;;;;;5079282;28;20029;-70
2020/12/13 09:05:00;;;;;;;0.65;0.50;;;7.50;61.90;;;;;;5078969;28;20315;-70
2020/12/13 09:07:32;;;;;;;0.90;0.40;;;7.60;60.20;;;;;;5078955;28;20451;-70
2020/12/13 09:10:16;;;;;;;0.45;0.35;;;7.70;60.40;;;;;;5078895;28;20408;-70
2020/12/13 09:12:41;;;;;;;0.43;0.22;;;7.70;60.60;;;;;;5078902;28;20021;-71
2020/12/13 09:15:12;;;;;;;0.70;0.50;;;7.90;59.90;;;;;;5061045;28;20081;-70
2020/12/13 09:17:39;;;;;;;0.20;0.20;;;8.00;60.40;;;;;;5078796;28;20012;-70
2020/12/13 09:20:06;;;;;;;0.50;0.32;;;8.00;58.30;;;;;;5079035;28;20051;-70
2020/12/13 09:22:31;;;;;;;0.75;0.43;;;8.10;59.20;;;;;;5078713;28;20024;-70
2020/12/13 09:25:00;;;;;;;0.68;0.40;;;8.10;58.50;;;;;;5060741;28;20051;-70
2020/12/13 09:27:27;;;;;;;0.80;0.30;;;8.20;59.90;;;;;;5078678;28;20033;-70
2020/12/13 09:29:53;;;;;;;2.58;0.40;;;8.40;59.70;;;;;;5078518;28;20035;-70
2020/12/13 09:32:21;;;;;;;0.80;0.50;;;8.70;59.60;;;;;;5078529;28;20074;-70
2020/12/13 09:34:47;;;;;;;1.10;0.82;;;9.50;56.60;;;;;;5078482;28;20078;-70
2020/12/13 09:37:18;;;;;;;1.55;1.08;;;10.70;53.60;;;;;;5078669;28;20020;-71
2020/12/13 09:39:44;;;;;;;1.17;0.88;;;11.90;50.90;;;;;;5078438;28;20075;-71
2020/12/13 09:42:11;;;;;;;1.75;0.90;;;13.10;49.20;;;;;;5078308;28;20025;-71
2020/12/13 09:44:37;;;;;;;1.92;0.70;;;13.90;47.80;;;;;;5078280;28;20032;-71
2020/12/13 09:47:03;;;;;;;2.67;1.60;;;14.40;45.80;;;;;;5078439;28;20298;-71
2020/12/13 09:49:30;;;;;;;4.88;2.15;;;15.20;45.80;;;;;;5078413;28;20373;-71
2020/12/13 09:52:01;;;;;;;2.45;1.85;;;15.90;47.80;;;;;;5078087;28;20021;-71
2020/12/13 09:54:27;;;;;;;2.45;1.83;;;16.30;47.20;;;;;;5077980;28;20051;-71
2020/12/13 09:56:53;;;;;;;3.13;2.35;;;16.40;45.30;;;;;;5078012;28;20070;-71
2020/12/13 09:59:19;;;;;;;3.92;2.47;;;16.50;44.50;;;;;;5077962;28;20028;-71
2020/12/13 10:01:45;;;;;;;2.67;2.10;;;16.40;45.80;;;;;;5077938;28;20463;-71
2020/12/13 10:04:11;;;;;;;2.72;2.22;;;16.40;45.10;;;;;;5077867;28;20028;-71
2020/12/13 10:09:15;;;;;;;0.82;0.50;;;16.20;42.00;;;;;;5086297;28;20324;-71
2020/12/13 10:11:42;;;;;;;0.60;0.32;;;16.20;42.60;;;;;;5097965;28;20045;-71
2020/12/13 10:14:11;;;;;;;0.65;0.52;;;15.40;42.60;;;;;;5097755;28;20028;-71
2020/12/13 10:16:41;;;;;;;2.22;0.40;;;15.20;44.80;;;;;;5097901;28;20318;-71
2020/12/13 10:19:07;;;;;;;0.60;0.40;;;15.50;43.20;;;;;;5097799;28;20054;-71
2020/12/13 10:21:35;;;;;;;2.50;0.70;;;15.90;42.50;;;;;;5097897;28;20019;-71
2020/12/13 10:24:01;;;;;;;3.13;2.58;;;15.90;44.70;;;;;;5097879;28;20081;-71
2020/12/13 10:26:30;;;;;;;3.60;3.08;;;16.30;45.50;;;;;;5097709;28;20435;-71
2020/12/13 10:28:56;;;;;;;5.53;3.38;;;16.50;47.00;;;;;;5097717;28;20020;-71
2020/12/13 10:31:27;;;;;;;4.47;2.97;;;16.80;46.20;;;;;;5097895;28;20135;-71
2020/12/13 10:33:53;;;;;;;4.25;2.65;;;16.90;45.50;;;;;;5097526;28;20016;-71
2020/12/13 10:36:19;;;;;;;3.65;2.65;;;16.90;45.40;;;;;;5097568;28;20111;-71
2020/12/13 10:38:48;;;;;;;3.00;2.50;;;17.10;44.70;;;;;;5097463;28;20430;-72
2020/12/13 10:41:17;;;;;;;3.47;2.60;;;17.50;43.70;;;;;;5097402;28;20065;-72
2020/12/13 10:43:43;;;;;;;3.83;2.33;;;17.40;44.50;;;;;;5097401;28;20073;-71
2020/12/13 10:46:09;;;;;;;2.15;1.05;;;17.30;45.60;;;;;;5096924;28;20024;-71
2020/12/13 10:48:34;;;;;;;4.78;4.05;;;17.40;40.30;;;;;;5097417;28;20051;-71
2020/12/13 10:51:00;;;;;;;4.78;4.07;;;17.00;47.20;;;;;;5097302;28;20089;-71
2020/12/13 10:53:26;;;;;;;5.28;2.92;;;17.00;45.60;;;;;;5097390;28;20024;-71
2020/12/13 10:55:55;;;;;;;3.80;3.35;;;16.90;45.30;;;;;;5097162;28;20067;-71
2020/12/13 10:58:20;;;;;;;4.50;3.85;;;16.60;45.60;;;;;;5097227;28;20031;-71
2020/12/13 11:00:47;;;;;;;4.50;3.50;;;16.60;46.60;;;;;;5079127;28;20020;-71
2020/12/13 11:03:13;;;;;;;4.38;3.78;;;16.50;46.20;;;;;;5097112;28;20103;-71
2020/12/13 11:05:39;;;;;;;5.10;4.55;;;16.40;46.40;;;;;;5097036;28;20016;-71
2020/12/13 11:08:04;;;;;;;4.70;4.10;;;16.50;47.20;;;;;;5096984;28;20281;-71
2020/12/13 11:10:32;;;;;;;5.05;4.25;;;16.20;45.90;;;;;;5097059;28;20412;-71
2020/12/13 11:12:58;;;;;;;5.57;4.13;;;16.30;47.20;;;;;;5096961;28;20289;-71
2020/12/13 11:15:24;;;;;;;4.75;3.75;;;16.40;46.50;;;;;;5096915;28;20081;-71
2020/12/13 11:17:49;;;;;;;5.53;4.70;;;16.40;46.20;;;;;;5097128;28;20081;-71
2020/12/13 11:20:15;;;;;;;7.13;4.28;;;16.40;46.60;;;;;;5096839;28;20028;-71
2020/12/13 11:22:41;;;;;;;5.05;4.50;;;16.40;46.80;;;;;;5096856;28;20024;-71
2020/12/13 11:25:09;;;;;;;5.18;3.88;;;16.40;49.00;;;;;;5096452;28;20052;-71
2020/12/13 11:27:35;;;;;;;4.00;3.38;;;16.40;47.70;;;;;;5096901;28;20070;-71
2020/12/13 11:30:09;;;;;;;4.60;3.50;;;16.40;48.00;;;;;;5096771;28;20028;-71
2020/12/13 11:32:34;;;;;;;4.50;4.10;;;16.50;47.00;;;;;;5096575;28;20016;-71
2020/12/13 11:35:00;;;;;;;5.85;3.70;;;16.50;46.60;;;;;;5096344;28;20035;-71
2020/12/13 11:37:26;;;;;;;4.15;3.58;;;16.40;47.90;;;;;;5096783;28;20031;-71
2020/12/13 11:39:52;;;;;;;4.70;3.67;;;16.40;46.80;;;;;;5096700;28;20324;-71
2020/12/13 11:42:21;;;;;;;5.07;3.67;;;16.20;46.40;;;;;;5096666;28;20023;-71
2020/12/13 11:44:47;;;;;;;4.30;3.58;;;16.10;46.60;;;;;;5096592;28;20158;-71
2020/12/13 11:47:13;;;;;;;2.92;2.63;;;16.20;46.40;;;;;;5096588;28;20016;-71
2020/12/13 11:49:39;;;;;;;2.45;1.23;;;15.80;46.30;;;;;;5096844;28;20024;-71
2020/12/13 11:52:04;;;;;;;4.43;3.60;;;15.80;43.10;;;;;;5096609;28;20024;-71
2020/12/13 11:54:31;;;;;;;3.92;3.53;;;15.70;49.90;;;;;;5096851;28;20028;-71
2020/12/13 11:56:57;;;;;;;5.40;3.65;;;15.50;49.50;;;;;;5096703;28;20033;-71
2020/12/13 11:59:28;;;;;;;6.18;4.32;;;15.50;49.10;;;;;;5100761;28;20028;-71
2020/12/13 12:01:55;;;;;;;5.47;4.63;;;15.60;48.30;;;;;;5100110;28;20085;-71
2020/12/13 12:04:21;;;;;;;5.28;4.30;;;15.40;48.00;;;;;;5100987;28;20047;-71
2020/12/13 12:06:47;;;;;;;6.25;4.25;;;15.00;49.60;;;;;;5100452;28;20024;-71
2020/12/13 12:09:14;;;;;;;5.45;4.00;;;15.00;49.50;;;;;;5100679;28;20038;-71
2020/12/13 12:11:45;;;;;;;4.82;4.32;;;15.20;48.90;;;;;;5100686;28;20020;-71
2020/12/13 12:14:11;;;;;;;4.70;4.03;;;15.40;50.20;;;;;;5100268;28;20066;-71
2020/12/13 12:16:42;;;;;;;5.60;4.00;;;15.50;49.90;;;;;;5100538;28;20320;-71
2020/12/13 12:19:08;;;;;;;4.15;3.75;;;15.60;48.90;;;;;;5100178;28;20028;-71
2020/12/13 12:21:43;;;;;;;4.63;3.45;;;15.60;49.30;;;;;;5100159;28;20044;-71
2020/12/13 12:24:08;;;;;;;4.80;3.67;;;15.60;51.10;;;;;;5100570;28;20024;-71
2020/12/13 12:26:42;;;;;;;4.97;3.95;;;15.60;49.30;;;;;;5099870;28;20044;-71
2020/12/13 12:29:07;;;;;;;4.43;3.70;;;15.60;48.10;;;;;;5100262;28;20028;-71
2020/12/13 12:31:33;;;;;;;5.53;3.70;;;15.30;49.40;;;;;;5100225;28;20030;-71
2020/12/13 12:33:59;;;;;;;3.97;3.55;;;15.30;50.80;;;;;;5099828;28;20060;-71
2020/12/13 12:36:28;;;;;;;4.85;3.65;;;15.20;48.30;;;;;;5099970;28;20024;-71
2020/12/13 12:38:54;;;;;;;4.30;3.25;;;14.80;48.40;;;;;;5099691;28;20441;-71
2020/12/13 12:41:21;;;;;;;4.65;3.63;;;14.60;50.30;;;;;;5099803;28;20103;-71
2020/12/13 12:43:48;;;;;;;4.40;3.75;;;14.50;50.80;;;;;;5099672;28;20150;-71
2020/12/13 12:46:14;;;;;;;6.35;3.78;;;14.20;49.90;;;;;;5099644;28;20048;-71
2020/12/13 12:48:40;;;;;;;5.07;3.90;;;13.70;52.80;;;;;;5099706;28;20325;-71
2020/12/13 12:51:09;;;;;;;4.90;3.40;;;13.40;52.00;;;;;;5099525;28;20017;-71
2020/12/13 12:53:35;;;;;;;4.00;3.22;;;13.10;54.40;;;;;;5099582;28;20051;-71
2020/12/13 12:56:06;;;;;;;4.72;3.53;;;12.70;53.90;;;;;;5099413;28;20024;-71
2020/12/13 12:58:41;;;;;;;5.13;3.58;;;12.30;53.60;;;;;;5099532;28;20021;-71
2020/12/13 13:01:09;;;;;;;5.88;3.70;;;11.90;56.20;;;;;;5081484;28;20028;-70
2020/12/13 13:03:35;;;;;;;5.38;3.33;;;11.50;57.70;;;;;;5099376;28;20040;-70
2020/12/13 13:06:08;;;;;;;5.53;3.88;;;11.10;57.20;;;;;;5081298;28;20052;-70
2020/12/13 13:08:40;;;;;;;4.68;3.83;;;10.80;58.10;;;;;;5098887;28;20073;-70
2020/12/13 13:11:21;;;;;;;4.90;3.67;;;10.50;59.80;;;;;;5099484;28;20031;-70
2020/12/13 13:13:46;;;;;;;5.18;4.03;;;10.40;59.50;;;;;;5099139;28;20153;-70